Barr, Mississippi
Current Conditions -  °F | °C
As of 6:55 AM on Thursday 27 Nov 2014 (Local Time) from KUOX Reporting Station
Overcast Overcast  
Wind Chill: 29°   Ceiling: 2700
Heat Index: 37°   Visibility: 10mi
Dew Point: 27°   Wind: 13mph
Humidity: 65%   Direction: 340°NNW
Pressure: 30.42"   Gusts: 22mph
Location:  34.6336°N, 89.8203°W
Report Text: KUOX 271255Z AUTO 34011G19KT 10SM OVC027 03/M03 A3042 RMK AO2 PWINO PNO
Loading
Personal Weather Stations






























Interactive Weather Map New forecast layout! Learn more

10-Day Weather Forecast

Advertisements
Track Severe Weather on mobile